Huvudsida
METAR-TAF:

METAR-TAF

Flygplatser :

Nice Côte d'Azur flygplats

Nice, Frankrike

latitud: 43-39N, longitud: 007-12E, höjd: 4 m

Aktuellt väderrapport

Denna rapport gjordes för 41 minuter sedan, klockan 13:30 UTC
Vind 2 kt varierande vindriktning
Temperatur 27°C
Fuktighet 66%
Tryck 1018 hPa
Sikt 10 km eller mer
Inga moln under 1 500 m eller inga cumulonimbus

METAR: LFMN 241330Z VRB02KT CAVOK 27/20 Q1018 NOSIG

Tid: 16:11 (14:11 UTC)

Väderprognos

Denna rapport gjordes för 6 timmar och 11 minuter sedan, klockan 08:00 UTC
Prognos gäller från 24 kl. 09 UTC till 25 kl. 15 UTC
Vind 6 kt från sydost
Sikt 10 km eller mer
Inga moln under 1 500 m eller inga cumulonimbus
Blir
från 24 kl. 18 UTC till 24 kl. 20 UTC
Vind 3 kt varierande vindriktning
Blir
från 25 kl. 07 UTC till 25 kl. 09 UTC
Vind 10 kt från ost

TAF: LFMN 240800Z 2409/2515 14006KT CAVOK BECMG 2418/2420 VRB03KT BECMG 2507/2509 10010KT

Aktuella väderrapporter och prognoser från 4000 flygplatser (METAR- och TAF-rapporter).

De tillgängliga stationerna syns som gula och röda prickar på kartan.

För musen över prickarna för att se namnen på stationerna.

Klicka sedan för att få väderrapporter och prognoser.

För att ändra kartan: Klicka på de gröna knapparna med ett svart kors på för att zooma in; den gröna knappen med ett streck på för att zooma ut; eller på de gröna pilarna för angränsande kartor.


METAR-TAF: